createdAt,value
2022-10-24T00:01:21.748Z,0.30
2022-10-24T00:03:49.631Z,0.22
2022-10-24T00:06:17.747Z,0.30
2022-10-24T00:08:45.161Z,0.30
2022-10-24T00:11:21.471Z,0.30
2022-10-24T00:13:48.534Z,0.30
2022-10-24T00:16:15.424Z,0.25
2022-10-24T00:18:42.612Z,0.30
2022-10-24T00:21:11.141Z,0.30
2022-10-24T00:23:39.514Z,0.30
2022-10-24T00:26:07.236Z,0.17
2022-10-24T00:28:36.949Z,0.20
2022-10-24T00:31:05.639Z,0.20
2022-10-24T00:33:32.817Z,0.20
2022-10-24T00:35:59.895Z,0.20
2022-10-24T00:38:26.882Z,0.20
2022-10-24T00:40:53.793Z,0.30
2022-10-24T00:43:25.513Z,0.30
2022-10-24T00:45:58.250Z,0.20
2022-10-24T00:48:25.023Z,0.20
2022-10-24T00:50:56.858Z,0.20
2022-10-24T00:53:25.528Z,0.20
2022-10-24T00:55:55.044Z,0.30
2022-10-24T00:58:26.068Z,0.30
2022-10-24T01:00:53.519Z,0.20
2022-10-24T01:03:20.608Z,0.30
2022-10-24T01:06:07.037Z,0.20
2022-10-24T01:08:42.307Z,0.30
2022-10-24T01:11:36.814Z,0.20
2022-10-24T01:14:16.501Z,0.30
2022-10-24T01:16:59.172Z,0.20
2022-10-24T01:19:45.870Z,0.20
2022-10-24T01:22:21.329Z,0.30
2022-10-24T01:25:17.461Z,0.30
2022-10-24T01:27:56.519Z,0.20
2022-10-24T01:30:24.807Z,0.30
2022-10-24T01:33:15.904Z,0.30
2022-10-24T01:36:00.203Z,0.30
2022-10-24T01:38:56.694Z,0.20
2022-10-24T01:41:27.893Z,0.20
2022-10-24T01:44:20.986Z,0.20
2022-10-24T01:47:12.277Z,0.20
2022-10-24T01:49:41.179Z,0.20
2022-10-24T01:54:43.066Z,0.20
2022-10-24T01:57:10.571Z,0.20
2022-10-24T01:59:40.309Z,0.32
2022-10-24T02:02:13.514Z,0.30
2022-10-24T02:04:46.397Z,0.30
2022-10-24T02:07:15.698Z,0.30
2022-10-24T02:09:44.911Z,0.30
2022-10-24T02:12:15.386Z,0.20
2022-10-24T02:14:49.063Z,0.30
2022-10-24T02:17:17.101Z,0.20
2022-10-24T02:19:45.129Z,0.28
2022-10-24T02:22:26.162Z,0.30
2022-10-24T02:25:17.496Z,0.30
2022-10-24T02:28:02.775Z,0.30
2022-10-24T02:30:34.175Z,0.20
2022-10-24T02:33:01.833Z,0.30
2022-10-24T02:35:35.411Z,0.25
2022-10-24T02:38:33.585Z,0.30
2022-10-24T02:41:04.670Z,0.20
2022-10-24T02:43:32.830Z,0.30
2022-10-24T02:45:59.803Z,0.30
2022-10-24T02:48:35.104Z,0.30
2022-10-24T02:51:03.238Z,0.40
2022-10-24T02:53:30.222Z,0.30
2022-10-24T02:55:57.218Z,0.20
2022-10-24T02:58:24.184Z,10.25
2022-10-24T03:00:51.172Z,8.35
2022-10-24T03:03:18.138Z,9.68
2022-10-24T03:05:45.249Z,7.13
2022-10-24T03:08:12.921Z,17.27
2022-10-24T03:10:41.054Z,11.07
2022-10-24T03:13:08.076Z,9.25
2022-10-24T03:15:35.037Z,5.40
2022-10-24T03:18:04.399Z,8.73
2022-10-24T03:20:31.276Z,5.95
2022-10-24T03:22:58.267Z,11.90
2022-10-24T03:25:25.192Z,5.47
2022-10-24T03:27:52.904Z,5.10
2022-10-24T03:30:19.998Z,8.73
2022-10-24T03:32:47.285Z,9.50
2022-10-24T03:35:14.698Z,7.85
2022-10-24T03:37:42.362Z,7.78
2022-10-24T03:40:10.651Z,5.75
2022-10-24T03:42:38.303Z,4.10
2022-10-24T03:45:06.065Z,11.52
2022-10-24T03:47:33.001Z,4.55
2022-10-24T03:50:00.043Z,5.78
2022-10-24T03:52:26.961Z,6.68
2022-10-24T03:54:54.050Z,7.25
2022-10-24T03:59:53.081Z,5.72
2022-10-24T04:02:20.163Z,10.48
2022-10-24T04:04:47.255Z,7.38
2022-10-24T04:07:14.252Z,8.48
2022-10-24T04:09:41.107Z,7.65
2022-10-24T04:12:08.145Z,12.23
2022-10-24T04:14:35.168Z,6.55
2022-10-24T04:17:02.182Z,9.95
2022-10-24T04:19:29.190Z,5.65
2022-10-24T04:21:56.181Z,8.27
2022-10-24T04:24:23.078Z,5.95
2022-10-24T04:26:50.068Z,8.50
2022-10-24T04:29:17.055Z,10.75
2022-10-24T04:31:44.027Z,11.27
2022-10-24T04:34:11.146Z,5.22
2022-10-24T04:36:38.241Z,9.18
2022-10-24T04:39:05.547Z,9.13
2022-10-24T04:41:32.507Z,8.50
2022-10-24T04:43:59.737Z,10.52
2022-10-24T04:46:26.998Z,12.80
2022-10-24T04:48:54.103Z,10.80
2022-10-24T04:51:22.460Z,7.95
2022-10-24T04:53:50.634Z,5.60
2022-10-24T04:56:19.072Z,10.23
2022-10-24T04:58:46.064Z,15.85
2022-10-24T05:01:19.232Z,11.88
2022-10-24T05:03:46.479Z,7.18
2022-10-24T05:06:13.536Z,7.18
2022-10-24T05:08:40.482Z,7.55
2022-10-24T05:11:07.449Z,7.22
2022-10-24T05:13:36.699Z,13.23
2022-10-24T05:16:04.753Z,5.65
2022-10-24T05:18:31.996Z,9.57
2022-10-24T05:21:00.156Z,12.70
2022-10-24T05:23:27.586Z,8.93
2022-10-24T05:25:54.433Z,5.57
2022-10-24T05:28:21.390Z,7.35
2022-10-24T05:30:48.313Z,6.53
2022-10-24T05:33:15.461Z,7.88
2022-10-24T05:35:42.638Z,8.32
2022-10-24T05:38:09.828Z,10.00
2022-10-24T05:40:36.750Z,9.35
2022-10-24T05:43:03.881Z,7.68
2022-10-24T05:45:30.915Z,7.68
2022-10-24T05:47:57.876Z,4.22
2022-10-24T05:50:26.706Z,8.70
2022-10-24T05:52:54.240Z,6.88
2022-10-24T05:55:21.291Z,17.65
2022-10-24T05:57:48.607Z,3.90
2022-10-24T06:00:17.299Z,5.38
2022-10-24T06:05:12.301Z,7.68
2022-10-24T06:07:42.187Z,4.63
2022-10-24T06:10:10.244Z,5.68
2022-10-24T06:12:37.631Z,5.43
2022-10-24T06:15:08.261Z,6.78
2022-10-24T06:17:35.743Z,4.72
2022-10-24T06:20:02.835Z,5.78
2022-10-24T06:22:29.932Z,7.25
2022-10-24T06:24:57.018Z,6.75
2022-10-24T06:27:24.223Z,8.27
2022-10-24T06:29:51.244Z,5.07
2022-10-24T06:32:18.739Z,7.00
2022-10-24T06:34:45.948Z,4.22
2022-10-24T06:37:13.009Z,6.65
2022-10-24T06:39:39.930Z,9.68
2022-10-24T06:42:06.940Z,6.03
2022-10-24T06:44:34.136Z,5.38
2022-10-24T06:47:01.055Z,5.40
2022-10-24T06:49:28.005Z,7.93
2022-10-24T06:51:55.029Z,3.95
2022-10-24T06:54:23.291Z,5.68
2022-10-24T06:56:52.350Z,7.40
2022-10-24T06:59:19.663Z,5.10
2022-10-24T07:01:47.063Z,6.05
2022-10-24T07:04:14.220Z,6.85
2022-10-24T07:06:41.343Z,4.75
2022-10-24T07:09:14.427Z,6.03
2022-10-24T07:11:43.054Z,9.80
2022-10-24T07:14:10.509Z,6.32
2022-10-24T07:16:37.953Z,3.88
2022-10-24T07:19:06.134Z,8.13
2022-10-24T07:21:33.676Z,9.30
2022-10-24T07:24:01.379Z,4.20
2022-10-24T07:26:31.865Z,9.38
2022-10-24T07:31:35.190Z,8.98
2022-10-24T07:34:04.805Z,7.40
2022-10-24T07:36:35.643Z,5.97
2022-10-24T07:39:05.101Z,8.20
2022-10-24T07:41:33.578Z,6.10
2022-10-24T07:44:02.601Z,5.70
2022-10-24T07:46:30.052Z,7.68
2022-10-24T07:48:57.144Z,5.65
2022-10-24T07:51:28.035Z,5.30
2022-10-24T07:53:55.061Z,8.02
2022-10-24T07:56:22.186Z,6.55
2022-10-24T07:58:49.297Z,8.05
2022-10-24T08:01:19.492Z,6.93
2022-10-24T08:03:46.956Z,4.68
2022-10-24T08:06:18.176Z,7.60
2022-10-24T08:08:45.570Z,3.72
2022-10-24T08:11:18.742Z,7.40
2022-10-24T08:13:45.747Z,5.18
2022-10-24T08:16:14.658Z,9.18
2022-10-24T08:18:41.827Z,6.00
2022-10-24T08:21:12.105Z,8.40
2022-10-24T08:23:41.470Z,3.60
2022-10-24T08:26:09.304Z,3.67
2022-10-24T08:28:36.476Z,5.65
2022-10-24T08:31:07.184Z,5.95
2022-10-24T08:33:34.725Z,4.18
2022-10-24T08:36:04.987Z,9.23
2022-10-24T08:38:32.189Z,4.20
2022-10-24T08:41:00.115Z,12.02
2022-10-24T08:43:27.236Z,5.57
2022-10-24T08:46:16.031Z,7.22
2022-10-24T08:49:02.426Z,3.55
2022-10-24T08:51:43.328Z,5.45
2022-10-24T08:54:18.601Z,4.00
2022-10-24T08:56:45.603Z,5.03
2022-10-24T08:59:13.345Z,7.25
2022-10-24T09:02:04.495Z,5.25
2022-10-24T09:04:41.877Z,5.13
2022-10-24T09:07:19.825Z,8.73
2022-10-24T09:09:49.805Z,5.78
2022-10-24T09:12:19.483Z,5.22
2022-10-24T09:14:51.827Z,3.58
2022-10-24T09:17:23.481Z,7.47
2022-10-24T09:19:50.447Z,6.18
2022-10-24T09:22:17.782Z,9.23
2022-10-24T09:24:58.053Z,7.55
2022-10-24T09:27:29.647Z,7.18
2022-10-24T09:29:58.554Z,9.68
2022-10-24T09:32:32.953Z,5.80
2022-10-24T09:35:03.173Z,9.07
2022-10-24T09:37:37.596Z,9.52
2022-10-24T09:40:18.281Z,4.35
2022-10-24T09:43:22.690Z,6.15
2022-10-24T09:45:51.239Z,5.03
2022-10-24T09:48:50.734Z,5.00
2022-10-24T09:51:24.184Z,5.13
2022-10-24T09:54:23.797Z,5.85
2022-10-24T09:57:12.871Z,6.63
2022-10-24T09:59:44.547Z,6.47
2022-10-24T10:02:14.245Z,8.98
2022-10-24T10:04:42.201Z,9.25
2022-10-24T10:07:15.820Z,6.97
2022-10-24T10:09:56.760Z,6.97
2022-10-24T10:12:34.618Z,8.48
2022-10-24T10:15:17.353Z,6.38
2022-10-24T10:17:54.170Z,7.97
2022-10-24T10:20:41.112Z,8.02
2022-10-24T10:23:33.157Z,7.60
2022-10-24T10:26:05.066Z,6.70
2022-10-24T10:28:36.695Z,5.78
2022-10-24T10:31:04.593Z,6.53
2022-10-24T10:33:57.613Z,3.97
2022-10-24T10:36:32.650Z,9.23
2022-10-24T10:39:31.724Z,9.40
2022-10-24T10:42:09.153Z,6.15
2022-10-24T10:45:00.438Z,8.55
2022-10-24T10:47:44.060Z,3.97
2022-10-24T10:50:25.236Z,3.17
2022-10-24T10:52:54.908Z,8.38
2022-10-24T10:55:30.931Z,10.65
2022-10-24T10:58:44.292Z,7.82
2022-10-24T11:01:23.948Z,5.18
2022-10-24T11:04:17.122Z,6.57
2022-10-24T11:07:08.753Z,10.10
2022-10-24T11:09:49.425Z,4.68
2022-10-24T11:12:22.262Z,5.72
2022-10-24T11:14:51.649Z,4.75
2022-10-24T11:17:23.670Z,5.70
2022-10-24T11:20:04.793Z,8.52
2022-10-24T11:22:42.107Z,7.15
2022-10-24T11:25:40.869Z,3.47
2022-10-24T11:28:19.382Z,8.02
2022-10-24T11:31:01.134Z,5.75
2022-10-24T11:33:40.113Z,8.95
2022-10-24T11:36:16.777Z,7.65
2022-10-24T11:38:58.318Z,7.25
2022-10-24T11:41:34.261Z,9.50
2022-10-24T11:44:18.993Z,3.83
2022-10-24T11:46:53.631Z,7.70
2022-10-24T11:49:31.126Z,7.53
2022-10-24T11:52:04.907Z,6.40
2022-10-24T11:54:40.033Z,11.40
2022-10-24T11:59:45.819Z,4.70
2022-10-24T12:02:29.597Z,5.88
2022-10-24T12:05:18.023Z,5.75
2022-10-24T12:07:53.214Z,5.53
2022-10-24T12:11:11.461Z,9.50
2022-10-24T12:13:59.728Z,6.18
2022-10-24T12:16:51.565Z,7.32
2022-10-24T12:19:20.477Z,5.28
2022-10-24T12:21:56.719Z,7.47
2022-10-24T12:24:35.875Z,6.07
2022-10-24T12:27:19.474Z,5.72
2022-10-24T12:30:00.158Z,4.95
2022-10-24T12:32:50.008Z,8.93
2022-10-24T12:35:33.988Z,7.97
2022-10-24T12:38:02.588Z,7.00
2022-10-24T12:40:52.210Z,8.20
2022-10-24T12:43:36.073Z,7.95
2022-10-24T12:46:17.817Z,9.25
2022-10-24T12:48:57.773Z,4.70
2022-10-24T12:51:36.342Z,5.18
2022-10-24T12:54:40.362Z,6.88
2022-10-24T12:57:08.839Z,6.65
2022-10-24T12:59:48.100Z,10.48
2022-10-24T13:02:17.854Z,7.97
2022-10-24T13:05:03.257Z,4.65
2022-10-24T13:07:54.671Z,5.85
2022-10-24T13:10:58.766Z,8.85
2022-10-24T13:13:39.700Z,9.38
2022-10-24T13:16:18.505Z,9.60
2022-10-24T13:19:22.182Z,6.68
2022-10-24T13:21:54.855Z,8.52
2022-10-24T13:24:34.890Z,7.38
2022-10-24T13:27:12.634Z,5.97
2022-10-24T13:29:40.090Z,6.65
2022-10-24T13:32:06.948Z,7.30
2022-10-24T13:34:44.127Z,8.32
2022-10-24T13:37:10.988Z,9.20
2022-10-24T13:39:44.810Z,8.10
2022-10-24T13:42:40.394Z,4.82
2022-10-24T13:45:21.653Z,5.32
2022-10-24T13:48:13.207Z,5.53
2022-10-24T13:51:12.195Z,4.95
2022-10-24T13:54:16.181Z,6.68
2022-10-24T13:56:45.193Z,4.68
2022-10-24T13:59:34.779Z,6.45
2022-10-24T14:02:08.261Z,6.68
2022-10-24T14:04:36.071Z,6.95
2022-10-24T14:07:06.811Z,6.35
2022-10-24T14:09:42.873Z,7.20
2022-10-24T14:12:25.762Z,5.50
2022-10-24T14:14:53.494Z,7.43
2022-10-24T14:17:26.014Z,6.05
2022-10-24T14:20:22.374Z,9.38
2022-10-24T14:22:49.553Z,9.88
2022-10-24T14:25:28.005Z,6.38
2022-10-24T14:27:58.131Z,10.07
2022-10-24T14:30:32.106Z,7.93
2022-10-24T14:33:13.922Z,6.80
2022-10-24T14:35:42.058Z,8.05
2022-10-24T14:38:14.941Z,7.78
2022-10-24T14:40:44.327Z,7.50
2022-10-24T14:43:21.559Z,7.95
2022-10-24T14:46:12.423Z,8.70
2022-10-24T14:48:45.683Z,8.43
2022-10-24T14:51:38.635Z,9.48
2022-10-24T14:54:16.992Z,6.10
2022-10-24T14:56:44.060Z,9.23
2022-10-24T14:59:35.727Z,10.27
2022-10-24T15:02:21.956Z,9.60
2022-10-24T15:04:53.147Z,7.90
2022-10-24T15:07:23.142Z,3.55
2022-10-24T15:10:12.067Z,7.10
2022-10-24T15:12:59.873Z,6.80
2022-10-24T15:15:34.136Z,7.95
2022-10-24T15:18:09.599Z,6.20
2022-10-24T15:20:40.394Z,4.82
2022-10-24T15:23:17.058Z,6.50
2022-10-24T15:25:44.058Z,11.43
2022-10-24T15:28:34.813Z,7.47
2022-10-24T15:31:01.714Z,5.35
2022-10-24T15:33:28.675Z,11.10
2022-10-24T15:35:55.623Z,7.63
2022-10-24T15:38:22.539Z,5.38
2022-10-24T15:40:49.459Z,7.55
2022-10-24T15:43:19.505Z,7.93
2022-10-24T15:45:47.206Z,6.30
2022-10-24T15:48:14.155Z,6.20
2022-10-24T15:50:46.048Z,5.35
2022-10-24T15:53:20.126Z,9.43
2022-10-24T15:55:47.163Z,7.07
2022-10-24T15:58:16.496Z,15.70
2022-10-24T16:00:43.975Z,6.85
2022-10-24T16:03:17.149Z,3.40
2022-10-24T16:05:52.242Z,8.00
2022-10-24T16:08:20.063Z,7.25
2022-10-24T16:10:50.591Z,5.28
2022-10-24T16:13:19.137Z,7.47
2022-10-24T16:15:46.935Z,4.05
2022-10-24T16:18:13.982Z,3.58
2022-10-24T16:20:41.225Z,4.15
2022-10-24T16:23:08.892Z,8.85
2022-10-24T16:25:38.072Z,8.57
2022-10-24T16:28:07.879Z,6.32
2022-10-24T16:30:37.024Z,10.77
2022-10-24T16:33:04.071Z,8.57
2022-10-24T16:35:34.364Z,5.70
2022-10-24T16:38:02.498Z,9.32
2022-10-24T16:40:30.775Z,9.13
2022-10-24T16:42:59.539Z,14.88
2022-10-24T16:45:29.986Z,9.25
2022-10-24T16:47:56.983Z,13.20
2022-10-24T16:50:27.170Z,14.10
2022-10-24T16:53:06.909Z,15.73
2022-10-24T16:55:34.553Z,23.50
2022-10-24T16:58:01.771Z,11.05
2022-10-24T17:00:30.314Z,9.02
2022-10-24T17:02:58.679Z,9.10
2022-10-24T17:05:27.736Z,29.70
2022-10-24T17:07:58.791Z,18.00
2022-10-24T17:10:25.999Z,34.17
2022-10-24T17:12:53.494Z,45.67
2022-10-24T17:15:22.418Z,43.85
2022-10-24T17:17:50.408Z,22.67
2022-10-24T17:20:26.973Z,13.10
2022-10-24T17:22:55.655Z,14.88
2022-10-24T17:25:27.942Z,17.25
2022-10-24T17:27:55.418Z,15.32
2022-10-24T17:30:26.370Z,12.40
2022-10-24T17:32:55.164Z,18.13
2022-10-24T17:35:24.430Z,12.70
2022-10-24T17:37:57.425Z,19.95
2022-10-24T17:40:28.106Z,12.00
2022-10-24T17:42:55.441Z,13.70
2022-10-24T17:45:24.972Z,13.60
2022-10-24T17:47:52.164Z,12.47
2022-10-24T17:50:19.605Z,13.37
2022-10-24T17:52:50.967Z,13.00
2022-10-24T17:55:45.086Z,10.52
2022-10-24T17:58:12.784Z,9.73
2022-10-24T18:00:40.101Z,10.90
2022-10-24T18:03:08.634Z,18.20
2022-10-24T18:05:38.926Z,22.00
2022-10-24T18:08:14.469Z,17.70
2022-10-24T18:10:41.769Z,12.52
2022-10-24T18:13:09.090Z,20.65
2022-10-24T18:15:36.755Z,14.00
2022-10-24T18:18:04.594Z,9.00
2022-10-24T18:20:32.277Z,10.20
2022-10-24T18:22:59.872Z,12.20
2022-10-24T18:25:27.333Z,7.40
2022-10-24T18:27:55.385Z,14.30
2022-10-24T18:30:22.521Z,13.57
2022-10-24T18:32:49.664Z,8.80
2022-10-24T18:35:16.997Z,16.20
2022-10-24T18:37:43.920Z,17.43
2022-10-24T18:40:11.567Z,11.20
2022-10-24T18:42:49.331Z,14.20
2022-10-24T18:45:24.837Z,16.27
2022-10-24T18:47:52.886Z,10.75
2022-10-24T18:50:22.807Z,9.80
2022-10-24T18:52:58.740Z,8.35
2022-10-24T18:55:28.370Z,6.93
2022-10-24T18:57:55.700Z,15.23
2022-10-24T19:00:31.295Z,7.45
2022-10-24T19:03:23.482Z,8.98
2022-10-24T19:06:10.130Z,7.13
2022-10-24T19:08:37.166Z,9.05
2022-10-24T19:11:04.243Z,13.65
2022-10-24T19:13:31.260Z,13.57
2022-10-24T19:16:00.793Z,9.95
2022-10-24T19:18:30.193Z,5.93
2022-10-24T19:20:57.043Z,6.15
2022-10-24T19:23:24.723Z,6.97
2022-10-24T19:25:52.419Z,6.60
2022-10-24T19:28:24.880Z,6.40
2022-10-24T19:30:51.884Z,10.47
2022-10-24T19:33:18.834Z,6.73
2022-10-24T19:35:49.042Z,9.77
2022-10-24T19:38:17.709Z,10.57
2022-10-24T19:40:53.623Z,5.13
2022-10-24T19:43:22.292Z,6.57
2022-10-24T19:46:07.191Z,3.07
2022-10-24T19:48:37.708Z,8.40
2022-10-24T19:51:06.873Z,6.57
2022-10-24T19:53:35.248Z,5.23
2022-10-24T19:56:06.922Z,3.77
2022-10-24T19:58:34.445Z,4.40
2022-10-24T20:01:08.232Z,2.63
2022-10-24T20:03:36.747Z,8.90
2022-10-24T20:06:04.063Z,5.10
2022-10-24T20:08:31.002Z,1.87
2022-10-24T20:10:57.945Z,4.60
2022-10-24T20:13:25.470Z,2.20
2022-10-24T20:15:54.295Z,2.90
2022-10-24T20:18:21.883Z,5.23
2022-10-24T20:20:51.402Z,6.53
2022-10-24T20:23:19.842Z,2.60
2022-10-24T20:25:57.493Z,6.10
2022-10-24T20:28:24.506Z,4.90
2022-10-24T20:30:52.107Z,6.80
2022-10-24T20:33:19.063Z,3.13
2022-10-24T20:35:46.059Z,4.70
2022-10-24T20:38:13.021Z,3.00
2022-10-24T20:40:40.068Z,6.20
2022-10-24T20:43:07.320Z,6.23
2022-10-24T20:45:38.692Z,3.50
2022-10-24T20:48:05.921Z,5.53
2022-10-24T20:50:32.998Z,5.80
2022-10-24T20:52:59.943Z,3.83
2022-10-24T20:55:39.364Z,2.90
2022-10-24T20:58:13.353Z,3.10
2022-10-24T21:00:42.902Z,4.67
2022-10-24T21:03:12.238Z,5.10
2022-10-24T21:05:39.402Z,4.40
2022-10-24T21:08:06.576Z,4.97
2022-10-24T21:10:33.651Z,5.47
2022-10-24T21:13:00.710Z,5.77
2022-10-24T21:15:27.862Z,5.80
2022-10-24T21:17:54.852Z,6.63
2022-10-24T21:20:22.037Z,6.27
2022-10-24T21:22:48.989Z,7.53
2022-10-24T21:25:16.020Z,10.53
2022-10-24T21:27:42.902Z,7.87
2022-10-24T21:30:14.425Z,6.40
2022-10-24T21:32:42.165Z,3.60
2022-10-24T21:35:09.198Z,7.27
2022-10-24T21:37:36.251Z,12.87
2022-10-24T21:40:03.847Z,6.50
2022-10-24T21:42:31.664Z,8.43
2022-10-24T21:44:59.230Z,7.33
2022-10-24T21:47:27.426Z,8.57
2022-10-24T21:49:54.326Z,10.87
2022-10-24T21:52:21.348Z,6.70
2022-10-24T21:54:48.295Z,8.10
2022-10-24T21:57:15.126Z,12.47
2022-10-24T21:59:42.112Z,8.60
2022-10-24T22:02:09.436Z,6.77
2022-10-24T22:04:36.864Z,10.03
2022-10-24T22:07:05.939Z,6.33
2022-10-24T22:09:33.183Z,8.83
2022-10-24T22:12:00.538Z,8.57
2022-10-24T22:14:27.468Z,11.33
2022-10-24T22:16:54.429Z,9.43
2022-10-24T22:19:21.381Z,9.70
2022-10-24T22:21:50.436Z,7.73
2022-10-24T22:24:23.298Z,7.83
2022-10-24T22:26:51.379Z,9.87
2022-10-24T22:29:21.594Z,7.43
2022-10-24T22:31:49.368Z,11.17
2022-10-24T22:34:19.403Z,7.53
2022-10-24T22:37:08.968Z,8.90
2022-10-24T22:39:36.136Z,9.33
2022-10-24T22:42:05.155Z,8.20
2022-10-24T22:44:32.268Z,11.17
2022-10-24T22:47:10.941Z,12.20
2022-10-24T22:49:58.879Z,10.23
2022-10-24T22:52:26.112Z,11.93
2022-10-24T22:54:53.536Z,13.83
2022-10-24T22:57:20.720Z,10.93
2022-10-24T22:59:47.868Z,11.17
2022-10-24T23:02:33.182Z,14.50
2022-10-24T23:05:06.316Z,7.37
2022-10-24T23:07:46.134Z,8.97
2022-10-24T23:10:19.707Z,10.93
2022-10-24T23:12:47.781Z,6.57
2022-10-24T23:15:16.867Z,9.60
2022-10-24T23:17:46.734Z,9.80
2022-10-24T23:20:36.761Z,10.30
2022-10-24T23:23:16.128Z,14.50
2022-10-24T23:26:03.683Z,7.93
2022-10-24T23:28:35.294Z,6.23
2022-10-24T23:33:30.465Z,8.77
2022-10-24T23:36:00.082Z,8.73
2022-10-24T23:38:27.533Z,8.07
2022-10-24T23:40:54.832Z,6.87
2022-10-24T23:43:23.240Z,9.17
2022-10-24T23:46:00.538Z,5.17
2022-10-24T23:48:36.361Z,10.73
2022-10-24T23:51:05.293Z,8.80
2022-10-24T23:53:53.189Z,9.93
2022-10-24T23:56:26.241Z,9.17
2022-10-24T23:58:53.547Z,9.80
